createdAt,value
2019-05-18T00:01:06.732Z,99.90
2019-05-18T00:03:36.604Z,99.90
2019-05-18T00:06:06.427Z,99.90
2019-05-18T00:08:36.215Z,99.90
2019-05-18T00:11:06.102Z,99.90
2019-05-18T00:13:36.060Z,99.90
2019-05-18T00:16:05.830Z,99.90
2019-05-18T00:18:35.649Z,99.90
2019-05-18T00:21:06.694Z,99.90
2019-05-18T00:23:36.425Z,99.90
2019-05-18T00:26:06.260Z,99.90
2019-05-18T00:28:36.057Z,99.90
2019-05-18T00:31:05.802Z,99.90
2019-05-18T00:33:35.598Z,99.90
2019-05-18T00:36:05.605Z,99.90
2019-05-18T00:38:35.464Z,99.90
2019-05-18T00:41:05.233Z,99.90
2019-05-18T00:43:34.984Z,99.90
2019-05-18T00:46:05.094Z,99.90
2019-05-18T00:48:34.926Z,99.90
2019-05-18T00:51:04.749Z,99.90
2019-05-18T00:53:34.480Z,99.90
2019-05-18T00:56:04.272Z,99.90
2019-05-18T00:58:34.239Z,99.90
2019-05-18T01:01:03.930Z,99.90
2019-05-18T01:03:33.812Z,99.90
2019-05-18T01:06:03.646Z,99.90
2019-05-18T01:08:33.419Z,99.90
2019-05-18T01:11:03.374Z,99.90
2019-05-18T01:13:33.183Z,99.90
2019-05-18T01:16:03.060Z,99.90
2019-05-18T01:18:32.813Z,99.90
2019-05-18T01:21:02.708Z,99.90
2019-05-18T01:23:32.492Z,99.90
2019-05-18T01:26:02.268Z,99.90
2019-05-18T01:28:32.110Z,99.90
2019-05-18T01:31:01.929Z,99.90
2019-05-18T01:33:31.648Z,99.90
2019-05-18T01:36:01.427Z,99.90
2019-05-18T01:38:31.233Z,99.90
2019-05-18T01:41:01.082Z,99.90
2019-05-18T01:43:30.741Z,99.90
2019-05-18T01:46:00.494Z,99.90
2019-05-18T01:48:30.269Z,99.90
2019-05-18T01:51:00.061Z,99.90
2019-05-18T01:53:29.807Z,99.90
2019-05-18T01:56:02.074Z,99.90
2019-05-18T01:58:31.902Z,99.90
2019-05-18T02:01:01.691Z,99.90
2019-05-18T02:03:31.487Z,99.90
2019-05-18T02:06:01.254Z,99.90
2019-05-18T02:08:30.987Z,99.90
2019-05-18T02:11:00.710Z,99.90
2019-05-18T02:13:30.522Z,99.90
2019-05-18T02:16:00.329Z,99.90
2019-05-18T02:18:30.142Z,99.90
2019-05-18T02:20:59.883Z,99.90
2019-05-18T02:23:29.683Z,99.90
2019-05-18T02:25:59.480Z,99.90
2019-05-18T02:28:29.263Z,99.90
2019-05-18T02:30:59.103Z,99.90
2019-05-18T02:33:29.025Z,99.90
2019-05-18T02:35:58.795Z,99.90
2019-05-18T02:38:28.533Z,99.90
2019-05-18T02:40:58.263Z,99.90
2019-05-18T02:43:28.022Z,99.90
2019-05-18T02:45:57.814Z,99.90
2019-05-18T02:48:27.687Z,99.90
2019-05-18T02:50:57.323Z,99.90
2019-05-18T02:53:27.073Z,99.90
2019-05-18T02:55:56.939Z,99.90
2019-05-18T02:58:26.760Z,99.90
2019-05-18T03:00:56.451Z,99.90
2019-05-18T03:03:26.248Z,99.90
2019-05-18T03:05:56.783Z,99.90
2019-05-18T03:08:26.644Z,99.90
2019-05-18T03:10:56.466Z,99.90
2019-05-18T03:13:26.261Z,99.90
2019-05-18T03:15:56.034Z,99.90
2019-05-18T03:18:25.856Z,99.90
2019-05-18T03:20:55.687Z,99.90
2019-05-18T03:23:25.598Z,99.90
2019-05-18T03:25:55.395Z,99.90
2019-05-18T03:28:25.208Z,99.90
2019-05-18T03:30:55.008Z,99.90
2019-05-18T03:33:28.920Z,99.90
2019-05-18T03:35:56.172Z,99.90
2019-05-18T03:38:25.788Z,99.90
2019-05-18T03:40:55.534Z,99.90
2019-05-18T03:43:25.222Z,99.90
2019-05-18T03:45:55.167Z,99.90
2019-05-18T03:48:24.969Z,99.90
2019-05-18T03:50:54.706Z,99.90
2019-05-18T03:53:24.489Z,99.90
2019-05-18T03:55:54.315Z,99.90
2019-05-18T03:58:24.064Z,99.90
2019-05-18T04:00:53.931Z,99.90
2019-05-18T04:03:23.723Z,99.90
2019-05-18T04:05:53.507Z,99.90
2019-05-18T04:08:23.299Z,99.90
2019-05-18T04:10:52.986Z,99.90
2019-05-18T04:13:22.701Z,99.90
2019-05-18T04:15:52.511Z,99.90
2019-05-18T04:18:22.306Z,99.90
2019-05-18T04:20:52.119Z,99.90
2019-05-18T04:23:21.842Z,99.90
2019-05-18T04:25:51.630Z,99.90
2019-05-18T04:28:21.415Z,99.90
2019-05-18T04:30:51.245Z,99.90
2019-05-18T04:33:21.064Z,99.90
2019-05-18T04:35:50.911Z,99.90
2019-05-18T04:38:20.585Z,99.90
2019-05-18T04:40:50.498Z,99.90
2019-05-18T04:43:20.295Z,99.90
2019-05-18T04:45:50.112Z,99.90
2019-05-18T04:48:19.953Z,99.90
2019-05-18T04:50:49.680Z,99.90
2019-05-18T04:53:19.519Z,99.90
2019-05-18T04:55:49.241Z,99.90
2019-05-18T04:58:19.072Z,99.90
2019-05-18T05:00:48.832Z,99.90
2019-05-18T05:03:18.578Z,99.90
2019-05-18T05:05:49.664Z,99.90
2019-05-18T05:08:19.349Z,99.90
2019-05-18T05:10:49.096Z,99.90
2019-05-18T05:13:18.862Z,99.90
2019-05-18T05:15:48.716Z,99.90
2019-05-18T05:18:18.400Z,99.90
2019-05-18T05:20:50.686Z,99.90
2019-05-18T05:23:20.430Z,99.90
2019-05-18T05:25:50.206Z,99.90
2019-05-18T05:28:19.965Z,99.90
2019-05-18T05:30:49.749Z,99.90
2019-05-18T05:33:19.511Z,99.90
2019-05-18T05:35:49.255Z,99.90
2019-05-18T05:38:19.006Z,99.90
2019-05-18T05:40:48.842Z,99.90
2019-05-18T05:43:18.614Z,99.90
2019-05-18T05:45:48.387Z,99.90
2019-05-18T05:48:18.135Z,99.90
2019-05-18T05:50:47.996Z,99.90
2019-05-18T05:53:17.726Z,99.90
2019-05-18T05:55:47.565Z,99.90
2019-05-18T05:58:17.699Z,99.90
2019-05-18T06:00:47.569Z,99.90
2019-05-18T06:03:17.405Z,99.90
2019-05-18T06:05:47.180Z,99.90
2019-05-18T06:08:16.915Z,99.90
2019-05-18T06:10:46.749Z,99.90
2019-05-18T06:13:16.541Z,99.90
2019-05-18T06:15:46.410Z,99.90
2019-05-18T06:18:16.192Z,99.90
2019-05-18T06:20:51.664Z,99.90
2019-05-18T06:23:17.406Z,99.90
2019-05-18T06:25:47.129Z,99.90
2019-05-18T06:28:16.797Z,99.90
2019-05-18T06:30:46.556Z,99.90
2019-05-18T06:33:16.263Z,99.90
2019-05-18T06:35:45.977Z,99.90
2019-05-18T06:38:15.829Z,99.90
2019-05-18T06:40:45.614Z,99.90
2019-05-18T06:43:15.352Z,99.90
2019-05-18T06:45:45.204Z,99.90
2019-05-18T06:48:15.124Z,99.90
2019-05-18T06:50:45.033Z,99.90
2019-05-18T06:53:14.847Z,99.90
2019-05-18T06:55:45.094Z,99.90
2019-05-18T06:58:15.374Z,99.90
2019-05-18T07:00:45.138Z,99.90
2019-05-18T07:03:14.875Z,99.90
2019-05-18T07:05:44.696Z,99.90
2019-05-18T07:08:14.498Z,99.90
2019-05-18T07:10:44.246Z,99.90
2019-05-18T07:13:14.122Z,99.90
2019-05-18T07:15:43.950Z,99.90
2019-05-18T07:18:13.835Z,99.90
2019-05-18T07:20:43.477Z,99.90
2019-05-18T07:23:13.335Z,99.90
2019-05-18T07:25:43.100Z,99.90
2019-05-18T07:28:12.843Z,99.90
2019-05-18T07:30:42.570Z,99.90
2019-05-18T07:33:12.334Z,99.90
2019-05-18T07:35:42.154Z,99.90
2019-05-18T07:38:11.918Z,99.90
2019-05-18T07:40:41.692Z,97.70
2019-05-18T07:43:11.362Z,91.40
2019-05-18T07:45:41.188Z,89.60
2019-05-18T07:48:10.978Z,91.00
2019-05-18T07:50:40.821Z,87.10
2019-05-18T07:53:10.616Z,81.10
2019-05-18T07:55:40.374Z,75.50
2019-05-18T07:58:10.282Z,76.90
2019-05-18T08:00:39.994Z,75.40
2019-05-18T08:03:09.849Z,72.50
2019-05-18T08:05:39.515Z,69.50
2019-05-18T08:08:12.668Z,69.50
2019-05-18T08:10:44.917Z,71.40
2019-05-18T08:13:18.603Z,70.50
2019-05-18T08:15:50.468Z,67.70
2019-05-18T08:18:22.320Z,68.40
2019-05-18T08:20:54.394Z,68.30
2019-05-18T08:23:25.406Z,66.60
2019-05-18T08:25:55.632Z,67.80
2019-05-18T08:28:28.817Z,67.40
2019-05-18T08:30:58.504Z,68.90
2019-05-18T08:33:28.310Z,72.40
2019-05-18T08:35:58.136Z,76.40
2019-05-18T08:38:27.872Z,81.60
2019-05-18T08:40:57.596Z,91.90
2019-05-18T08:43:27.444Z,98.00
2019-05-18T08:45:57.329Z,99.90
2019-05-18T08:48:27.119Z,99.90
2019-05-18T08:50:59.170Z,99.90
2019-05-18T08:53:32.463Z,99.90
2019-05-18T08:56:07.874Z,99.90
2019-05-18T08:58:43.291Z,99.90
2019-05-18T09:01:15.952Z,99.90
2019-05-18T09:03:47.982Z,99.90
2019-05-18T09:06:21.129Z,99.90
2019-05-18T09:08:53.818Z,99.90
2019-05-18T09:11:25.404Z,99.90
2019-05-18T09:13:58.106Z,99.90
2019-05-18T09:16:31.651Z,99.90
2019-05-18T09:19:04.075Z,99.90
2019-05-18T09:21:33.878Z,97.90
2019-05-18T09:24:04.595Z,95.90
2019-05-18T09:26:34.364Z,95.30
2019-05-18T09:29:05.376Z,98.20
2019-05-18T09:31:40.290Z,99.40
2019-05-18T09:34:10.906Z,99.90
2019-05-18T09:36:44.771Z,99.90
2019-05-18T09:39:17.278Z,99.90
2019-05-18T09:41:48.763Z,99.90
2019-05-18T09:44:21.118Z,99.90
2019-05-18T09:46:53.188Z,99.90
2019-05-18T09:49:25.607Z,99.20
2019-05-18T09:52:00.180Z,98.90
2019-05-18T09:54:30.035Z,98.90
2019-05-18T09:56:59.818Z,97.40
2019-05-18T09:59:29.593Z,95.00
2019-05-18T10:01:59.314Z,93.50
2019-05-18T10:04:29.495Z,92.20
2019-05-18T10:06:59.187Z,87.10
2019-05-18T10:09:38.933Z,84.50
2019-05-18T10:12:03.202Z,78.30
2019-05-18T10:14:33.048Z,75.40
2019-05-18T10:17:03.144Z,72.70
2019-05-18T10:19:32.886Z,70.20
2019-05-18T10:22:02.750Z,69.90
2019-05-18T10:24:32.386Z,70.30
2019-05-18T10:27:02.092Z,71.80
2019-05-18T10:29:32.346Z,72.20
2019-05-18T10:32:06.063Z,76.20
2019-05-18T10:34:38.626Z,78.50
2019-05-18T10:37:11.930Z,82.20
2019-05-18T10:39:45.567Z,84.80
2019-05-18T10:42:20.037Z,88.20
2019-05-18T10:44:54.503Z,88.80
2019-05-18T10:47:27.854Z,87.10
2019-05-18T10:49:58.740Z,82.50
2019-05-18T10:52:28.887Z,81.90
2019-05-18T10:54:59.034Z,80.70
2019-05-18T10:57:30.528Z,74.70
2019-05-18T11:00:00.342Z,73.10
2019-05-18T11:02:33.540Z,70.30
2019-05-18T11:05:05.729Z,68.80
2019-05-18T11:07:35.946Z,67.90
2019-05-18T11:10:06.985Z,68.20
2019-05-18T11:12:36.723Z,67.30
2019-05-18T11:15:07.597Z,65.60
2019-05-18T11:17:37.372Z,62.40
2019-05-18T11:20:08.331Z,62.10
2019-05-18T11:22:38.168Z,62.20
2019-05-18T11:25:09.221Z,62.60
2019-05-18T11:27:41.518Z,61.90
2019-05-18T11:30:13.138Z,62.10
2019-05-18T11:32:42.965Z,63.10
2019-05-18T11:35:13.520Z,64.30
2019-05-18T11:37:43.270Z,65.10
2019-05-18T11:40:14.919Z,64.90
2019-05-18T11:42:44.694Z,65.20
2019-05-18T11:45:16.157Z,65.40
2019-05-18T11:47:45.885Z,64.00
2019-05-18T11:50:16.597Z,64.20
2019-05-18T11:52:46.380Z,63.00
2019-05-18T11:55:16.498Z,64.20
2019-05-18T11:57:46.365Z,63.70
2019-05-18T12:00:16.485Z,63.10
2019-05-18T12:02:46.255Z,64.40
2019-05-18T12:05:16.503Z,64.70
2019-05-18T12:07:46.366Z,63.50
2019-05-18T12:10:18.356Z,63.10
2019-05-18T12:12:47.719Z,63.30
2019-05-18T12:15:18.817Z,64.60
2019-05-18T12:17:48.605Z,65.80
2019-05-18T12:20:19.043Z,64.80
2019-05-18T12:22:48.854Z,65.60
2019-05-18T12:25:18.813Z,65.70
2019-05-18T12:27:48.606Z,66.30
2019-05-18T12:30:18.538Z,67.70
2019-05-18T12:32:48.378Z,69.60
2019-05-18T12:35:18.558Z,69.70
2019-05-18T12:37:48.305Z,69.60
2019-05-18T12:40:20.561Z,70.60
2019-05-18T12:42:50.317Z,70.80
2019-05-18T12:45:21.153Z,72.80
2019-05-18T12:47:50.958Z,73.20
2019-05-18T12:50:23.615Z,74.20
2019-05-18T12:52:53.453Z,76.50
2019-05-18T12:55:23.419Z,77.60
2019-05-18T12:57:53.235Z,77.40
2019-05-18T13:00:23.752Z,79.70
2019-05-18T13:02:53.560Z,80.30
2019-05-18T13:05:23.354Z,79.70
2019-05-18T13:07:53.023Z,81.40
2019-05-18T13:10:23.066Z,81.70
2019-05-18T13:12:52.868Z,81.90
2019-05-18T13:15:23.862Z,79.50
2019-05-18T13:17:53.617Z,80.60
2019-05-18T13:20:23.752Z,79.80
2019-05-18T13:22:53.549Z,79.40
2019-05-18T13:25:23.546Z,78.30
2019-05-18T13:27:53.362Z,79.50
2019-05-18T13:30:23.341Z,77.80
2019-05-18T13:32:53.196Z,78.00
2019-05-18T13:35:24.358Z,78.00
2019-05-18T13:37:54.122Z,78.40
2019-05-18T13:40:23.938Z,78.90
2019-05-18T13:42:53.712Z,80.10
2019-05-18T13:45:23.461Z,80.90
2019-05-18T13:47:53.170Z,80.90
2019-05-18T13:50:23.789Z,81.90
2019-05-18T13:52:53.497Z,79.90
2019-05-18T13:55:23.297Z,78.70
2019-05-18T13:57:52.931Z,80.80
2019-05-18T14:00:22.831Z,81.10
2019-05-18T14:02:52.632Z,82.40
2019-05-18T14:05:22.610Z,83.60
2019-05-18T14:07:52.571Z,85.30
2019-05-18T14:10:22.315Z,86.00
2019-05-18T14:12:52.068Z,85.30
2019-05-18T14:15:23.302Z,86.70
2019-05-18T14:17:53.214Z,85.00
2019-05-18T14:20:26.207Z,85.00
2019-05-18T14:22:54.498Z,84.20
2019-05-18T14:25:24.285Z,84.80
2019-05-18T14:27:54.167Z,85.60
2019-05-18T14:30:24.047Z,86.10
2019-05-18T14:32:53.774Z,86.60
2019-05-18T14:35:23.580Z,89.20
2019-05-18T14:37:53.449Z,90.00
2019-05-18T14:40:23.367Z,90.00
2019-05-18T14:42:53.166Z,90.10
2019-05-18T14:45:23.081Z,90.40
2019-05-18T14:47:52.882Z,90.80
2019-05-18T14:50:22.843Z,90.10
2019-05-18T14:52:52.667Z,90.00
2019-05-18T14:55:33.305Z,86.50
2019-05-18T14:57:53.865Z,86.00
2019-05-18T15:00:23.850Z,86.40
2019-05-18T15:02:55.008Z,87.40
2019-05-18T15:05:24.714Z,86.60
2019-05-18T15:07:54.484Z,84.20
2019-05-18T15:10:24.310Z,84.90
2019-05-18T15:12:54.159Z,84.80
2019-05-18T15:15:29.798Z,85.00
2019-05-18T15:18:02.213Z,85.10
2019-05-18T15:20:33.348Z,85.60
2019-05-18T15:23:07.211Z,86.30
2019-05-18T15:25:50.355Z,87.50
2019-05-18T15:28:17.305Z,87.60
2019-05-18T15:31:00.452Z,86.60
2019-05-18T15:33:45.630Z,85.60
2019-05-18T15:36:20.379Z,85.90
2019-05-18T15:38:53.114Z,85.90
2019-05-18T15:41:29.694Z,85.80
2019-05-18T15:44:09.751Z,86.20
2019-05-18T15:46:48.394Z,87.20
2019-05-18T15:49:18.111Z,87.00
2019-05-18T15:51:48.034Z,88.80
2019-05-18T15:54:17.727Z,88.50
2019-05-18T15:56:47.547Z,90.20
2019-05-18T15:59:21.138Z,90.50
2019-05-18T16:01:50.986Z,91.30
2019-05-18T16:04:20.701Z,92.10
2019-05-18T16:06:50.795Z,91.00
2019-05-18T16:09:20.680Z,91.30
2019-05-18T16:11:50.426Z,91.10
2019-05-18T16:14:20.187Z,91.10
2019-05-18T16:16:54.689Z,91.50
2019-05-18T16:19:21.449Z,91.20
2019-05-18T16:21:51.509Z,91.20
2019-05-18T16:24:23.862Z,91.60
2019-05-18T16:26:53.612Z,92.20
2019-05-18T16:29:23.360Z,92.30
2019-05-18T16:31:53.086Z,92.30
2019-05-18T16:34:22.887Z,92.20
2019-05-18T16:36:52.611Z,92.30
2019-05-18T16:39:22.410Z,92.60
2019-05-18T16:41:52.182Z,92.70
2019-05-18T16:44:22.023Z,93.40
2019-05-18T16:46:53.464Z,93.50
2019-05-18T16:49:35.031Z,93.80
2019-05-18T16:52:04.779Z,94.10
2019-05-18T16:54:34.627Z,93.90
2019-05-18T16:57:04.483Z,94.40
2019-05-18T16:59:37.322Z,94.50
2019-05-18T17:02:11.063Z,95.10
2019-05-18T17:04:47.425Z,95.00
2019-05-18T17:07:18.992Z,95.00
2019-05-18T17:09:50.005Z,95.50
2019-05-18T17:12:20.791Z,95.00
2019-05-18T17:14:57.146Z,95.50
2019-05-18T17:17:28.858Z,95.10
2019-05-18T17:20:01.078Z,95.40
2019-05-18T17:22:38.760Z,95.60
2019-05-18T17:25:13.758Z,95.80
2019-05-18T17:27:46.051Z,96.50
2019-05-18T17:30:16.959Z,96.70
2019-05-18T17:32:50.609Z,97.50
2019-05-18T17:35:23.495Z,98.50
2019-05-18T17:38:03.126Z,98.70
2019-05-18T17:40:34.494Z,99.30
2019-05-18T17:43:20.206Z,99.90
2019-05-18T17:45:52.852Z,99.90
2019-05-18T17:48:53.277Z,99.90
2019-05-18T17:51:26.806Z,99.90
2019-05-18T17:53:58.723Z,99.90
2019-05-18T17:56:34.158Z,99.90
2019-05-18T17:59:03.676Z,99.90
2019-05-18T18:01:35.209Z,99.90
2019-05-18T18:04:07.744Z,99.90
2019-05-18T18:06:37.838Z,99.90
2019-05-18T18:09:08.704Z,99.90
2019-05-18T18:11:38.526Z,99.90
2019-05-18T18:14:08.678Z,99.90
2019-05-18T18:16:38.474Z,99.90
2019-05-18T18:19:11.200Z,99.90
2019-05-18T18:21:45.098Z,99.90
2019-05-18T18:24:19.382Z,99.90
2019-05-18T18:26:58.955Z,99.90
2019-05-18T18:29:29.422Z,99.90
2019-05-18T18:32:09.914Z,99.90
2019-05-18T18:34:43.108Z,99.90
2019-05-18T18:37:17.393Z,99.90
2019-05-18T18:39:59.052Z,99.90
2019-05-18T18:42:28.834Z,99.90
2019-05-18T18:45:02.414Z,99.90
2019-05-18T18:47:43.085Z,99.90
2019-05-18T18:50:17.356Z,99.90
2019-05-18T18:52:50.985Z,99.90
2019-05-18T18:55:21.045Z,99.90
2019-05-18T18:57:53.841Z,99.90
2019-05-18T19:00:25.470Z,99.90
2019-05-18T19:02:57.945Z,99.90
2019-05-18T19:05:29.148Z,99.90
2019-05-18T19:08:02.311Z,99.90
2019-05-18T19:10:34.900Z,99.90
2019-05-18T19:13:08.564Z,99.90
2019-05-18T19:15:40.708Z,99.90
2019-05-18T19:18:15.043Z,99.90
2019-05-18T19:20:47.335Z,99.90
2019-05-18T19:23:27.143Z,99.90
2019-05-18T19:26:08.069Z,99.90
2019-05-18T19:28:40.960Z,99.90
2019-05-18T19:31:14.201Z,99.90
2019-05-18T19:33:53.741Z,99.90
2019-05-18T19:36:25.168Z,99.90
2019-05-18T19:39:00.253Z,99.90
2019-05-18T19:41:31.581Z,99.90
2019-05-18T19:44:02.419Z,99.90
2019-05-18T19:46:35.930Z,99.90
2019-05-18T19:49:07.719Z,99.90
2019-05-18T19:51:46.402Z,99.90
2019-05-18T19:54:19.759Z,99.90
2019-05-18T19:56:51.148Z,99.90
2019-05-18T19:59:23.586Z,99.90
2019-05-18T20:01:54.259Z,99.90
2019-05-18T20:04:24.053Z,99.90
2019-05-18T20:06:58.549Z,99.90
2019-05-18T20:09:31.457Z,99.90
2019-05-18T20:12:04.060Z,99.90
2019-05-18T20:14:37.807Z,99.90
2019-05-18T20:17:08.897Z,99.90
2019-05-18T20:19:45.301Z,99.90
2019-05-18T20:22:27.604Z,99.90
2019-05-18T20:24:57.392Z,99.90
2019-05-18T20:27:30.464Z,99.90
2019-05-18T20:30:00.231Z,99.90
2019-05-18T20:32:33.679Z,99.90
2019-05-18T20:35:11.922Z,99.90
2019-05-18T20:37:48.084Z,99.90
2019-05-18T20:40:19.487Z,99.90
2019-05-18T20:42:49.770Z,99.90
2019-05-18T20:45:25.086Z,99.90
2019-05-18T20:47:58.715Z,99.90
2019-05-18T20:50:37.186Z,99.90
2019-05-18T20:53:10.943Z,99.90
2019-05-18T20:55:43.958Z,99.90
2019-05-18T20:58:14.904Z,99.90
2019-05-18T21:00:45.693Z,99.90
2019-05-18T21:03:19.800Z,99.90
2019-05-18T21:05:51.387Z,99.90
2019-05-18T21:08:26.368Z,99.90
2019-05-18T21:10:59.686Z,99.90
2019-05-18T21:13:31.492Z,99.90
2019-05-18T21:16:01.309Z,99.90
2019-05-18T21:18:32.598Z,99.90
2019-05-18T21:21:12.823Z,99.90
2019-05-18T21:23:49.588Z,99.90
2019-05-18T21:26:25.941Z,99.90
2019-05-18T21:29:00.856Z,99.90
2019-05-18T21:31:55.735Z,99.90
2019-05-18T21:34:29.708Z,99.90
2019-05-18T21:37:03.627Z,99.90
2019-05-18T21:39:37.739Z,99.90
2019-05-18T21:42:08.730Z,99.90
2019-05-18T21:44:41.799Z,99.90
2019-05-18T21:47:16.975Z,99.90
2019-05-18T21:49:48.857Z,99.90
2019-05-18T21:52:22.455Z,99.90
2019-05-18T21:54:54.475Z,99.90
2019-05-18T21:57:29.043Z,99.90
2019-05-18T22:00:05.430Z,99.90
2019-05-18T22:02:39.830Z,99.90
2019-05-18T22:05:18.886Z,99.90
2019-05-18T22:07:58.243Z,99.90
2019-05-18T22:10:31.496Z,99.90
2019-05-18T22:13:06.277Z,99.90
2019-05-18T22:15:40.917Z,99.90
2019-05-18T22:18:23.940Z,99.90
2019-05-18T22:20:52.365Z,99.90
2019-05-18T22:23:25.765Z,99.90
2019-05-18T22:26:13.027Z,99.90
2019-05-18T22:28:47.979Z,99.90
2019-05-18T22:31:23.279Z,99.90
2019-05-18T22:33:56.349Z,99.90
2019-05-18T22:36:30.927Z,99.90
2019-05-18T22:39:00.731Z,99.90
2019-05-18T22:41:34.292Z,99.90
2019-05-18T22:44:07.359Z,99.90
2019-05-18T22:46:45.859Z,99.90
2019-05-18T22:49:35.018Z,99.90
2019-05-18T22:52:04.285Z,99.90
2019-05-18T22:54:35.753Z,99.90
2019-05-18T22:57:10.102Z,99.90
2019-05-18T22:59:43.789Z,99.90
2019-05-18T23:02:16.340Z,99.90
2019-05-18T23:04:55.421Z,99.90
2019-05-18T23:07:27.310Z,99.90
2019-05-18T23:10:03.199Z,99.90
2019-05-18T23:12:53.237Z,99.90
2019-05-18T23:15:30.086Z,99.90
2019-05-18T23:18:03.025Z,99.90
2019-05-18T23:20:37.919Z,99.90
2019-05-18T23:23:09.092Z,99.90
2019-05-18T23:26:01.412Z,99.90
2019-05-18T23:28:42.094Z,99.90
2019-05-18T23:31:20.515Z,99.90
2019-05-18T23:33:59.130Z,99.90
2019-05-18T23:36:51.489Z,99.90
2019-05-18T23:39:24.157Z,99.90
2019-05-18T23:41:57.951Z,99.90
2019-05-18T23:44:32.374Z,99.90
2019-05-18T23:47:01.458Z,99.90
2019-05-18T23:49:31.621Z,99.90
2019-05-18T23:52:04.705Z,99.90
2019-05-18T23:54:39.414Z,99.90
2019-05-18T23:57:10.518Z,99.90
2019-05-18T23:59:41.086Z,99.90
